Time;durP1;ratioP1;P1;durP2;ratioP2;P2;SDS_P1;SDS_P2;PMS_P1;PMS_P2;Temp;Humidity;BMP_temperature;BMP_pressure;BME280_temperature;BME280_humidity;BME280_pressure;Samples;Min_cycle;Max_cycle;Signal;HPM_P1;HPM_P2
2021/09/17 00:01:57;;;;;;;7.20;6.60;;;12.90;99.90;;;13.55;99.50;98083.09;5161360;28;20313;-56
2021/09/17 00:04:30;;;;;;;7.53;6.93;;;12.80;99.90;;;13.59;99.71;98084.09;5164423;28;20204;-59
2021/09/17 00:07:05;;;;;;;7.47;6.88;;;12.80;99.90;;;13.67;98.83;98087.94;5165377;28;20359;-59
2021/09/17 00:09:38;;;;;;;7.57;6.95;;;12.90;99.90;;;13.70;99.90;98086.38;5163726;28;20249;-59
2021/09/17 00:12:12;;;;;;;8.05;7.45;;;12.90;99.90;;;13.71;100.00;98072.75;5165915;28;20643;-59
2021/09/17 00:14:46;;;;;;;7.95;7.30;;;13.00;99.90;;;13.71;100.00;98080.47;5165037;28;20718;-59
2021/09/17 00:17:19;;;;;;;8.20;7.50;;;13.00;99.90;;;13.72;100.00;98081.34;5164432;28;20205;-58
2021/09/17 00:19:53;;;;;;;8.15;7.45;;;13.00;99.90;;;13.74;100.00;98075.47;5164422;28;20335;-58
2021/09/17 00:22:27;;;;;;;8.25;7.65;;;13.00;99.90;;;13.74;100.00;98079.72;5165185;28;20241;-59
2021/09/17 00:25:01;;;;;;;8.27;7.53;;;13.00;99.90;;;13.75;100.00;98078.91;5160219;28;20619;-58
2021/09/17 00:27:34;;;;;;;7.85;7.15;;;13.10;99.90;;;13.79;100.00;98078.25;5164486;28;20204;-59
2021/09/17 00:30:09;;;;;;;7.78;7.10;;;13.10;99.90;;;13.81;99.79;98078.31;5165599;28;20233;-59
2021/09/17 00:32:42;;;;;;;8.82;8.07;;;13.10;99.90;;;13.80;99.84;98074.88;5165192;28;23033;-59
2021/09/17 00:35:15;;;;;;;8.18;7.55;;;13.00;99.90;;;13.66;99.01;98066.50;5164188;28;20298;-57
2021/09/17 00:37:50;;;;;;;8.43;7.80;;;12.90;99.90;;;13.69;99.94;98070.91;5165489;28;20210;-58
2021/09/17 00:40:23;;;;;;;9.45;8.65;;;12.90;99.90;;;13.72;99.06;98065.94;5165627;28;20214;-59
2021/09/17 00:42:56;;;;;;;8.57;7.88;;;12.90;99.90;;;13.73;100.00;98068.59;5164823;28;20231;-59
2021/09/17 00:45:29;;;;;;;9.02;8.23;;;13.00;99.90;;;13.80;99.47;98066.31;5163745;28;20214;-58
2021/09/17 00:48:02;;;;;;;9.13;8.32;;;13.00;99.90;;;13.78;99.13;98070.47;5163201;28;20204;-55
2021/09/17 00:50:35;;;;;;;8.60;7.90;;;13.00;99.90;;;13.73;100.00;98063.44;5164846;28;21001;-58
2021/09/17 00:53:09;;;;;;;8.63;7.93;;;13.00;99.90;;;13.65;99.88;98064.75;5165176;28;20195;-59
2021/09/17 00:55:43;;;;;;;7.85;7.15;;;13.00;99.90;;;13.65;98.77;98061.28;5165790;28;20465;-59
2021/09/17 00:58:16;;;;;;;7.53;6.93;;;12.90;99.90;;;13.62;98.42;98063.72;5165719;28;20269;-59
2021/09/17 01:00:49;;;;;;;7.13;6.53;;;12.90;99.90;;;13.57;98.43;98066.06;5166538;28;20230;-57
2021/09/17 01:03:22;;;;;;;6.75;6.25;;;12.80;99.90;;;13.63;99.20;98061.22;5165199;28;20725;-59
2021/09/17 01:05:56;;;;;;;7.63;6.97;;;12.90;99.90;;;13.66;99.01;98061.38;5166195;28;20247;-57
2021/09/17 01:08:31;;;;;;;7.38;6.72;;;12.90;99.90;;;13.64;99.10;98060.41;5166082;28;20691;-57
2021/09/17 01:11:04;;;;;;;7.80;7.00;;;12.90;99.90;;;13.55;99.51;98051.41;5166621;28;20294;-58
2021/09/17 01:13:38;;;;;;;7.15;6.65;;;12.90;99.90;;;13.56;98.95;98064.28;5165928;28;20198;-58
2021/09/17 01:16:11;;;;;;;7.47;6.95;;;12.90;99.90;;;13.60;99.89;98049.94;5166010;28;20831;-58
2021/09/17 01:18:44;;;;;;;7.80;7.20;;;12.90;99.90;;;13.60;99.14;98044.78;5163849;28;20251;-57
2021/09/17 01:21:18;;;;;;;7.65;6.97;;;12.90;99.90;;;13.58;99.81;98052.41;5165396;28;20207;-57
2021/09/17 01:23:51;;;;;;;7.25;6.75;;;12.90;99.90;;;13.61;99.13;98052.56;5163759;28;20222;-59
2021/09/17 01:26:25;;;;;;;7.10;6.40;;;13.00;99.90;;;13.64;99.12;98055.28;5166726;28;20290;-59
2021/09/17 01:28:58;;;;;;;6.70;6.20;;;12.90;99.90;;;13.62;99.40;98049.19;5165635;28;20226;-57
2021/09/17 01:31:31;;;;;;;6.43;6.03;;;12.90;99.90;;;13.66;99.34;98045.09;5165622;28;20203;-56
2021/09/17 01:34:08;;;;;;;6.75;5.97;;;13.00;99.90;;;13.75;99.01;98042.94;5165433;28;20290;-56
2021/09/17 01:36:42;;;;;;;6.15;5.65;;;13.00;99.90;;;13.74;98.68;98043.78;5164386;28;20262;-58
2021/09/17 01:39:17;;;;;;;5.88;5.47;;;13.00;99.90;;;13.73;98.25;98041.97;5165162;28;20486;-59
2021/09/17 01:41:50;;;;;;;6.22;5.82;;;13.00;99.90;;;13.72;98.38;98040.25;5166082;28;20186;-55
2021/09/17 01:44:23;;;;;;;5.78;5.38;;;12.90;99.90;;;13.71;97.37;98039.38;5165956;28;20223;-57
2021/09/17 01:46:56;;;;;;;6.43;5.93;;;13.00;99.90;;;13.72;97.85;98041.13;5165466;28;20666;-57
2021/09/17 01:49:29;;;;;;;6.72;6.25;;;13.00;99.90;;;13.67;99.67;98039.13;5164667;28;20226;-58
2021/09/17 01:52:04;;;;;;;6.97;6.47;;;13.10;99.90;;;13.63;98.73;98040.69;5163652;28;20203;-59
2021/09/17 01:54:38;;;;;;;7.05;6.57;;;13.00;99.90;;;13.69;98.29;98034.97;5165140;28;20282;-57
2021/09/17 01:57:11;;;;;;;6.22;5.72;;;13.00;99.90;;;13.70;98.48;98042.72;5164666;28;20656;-57
2021/09/17 01:59:44;;;;;;;6.55;6.10;;;13.00;99.90;;;13.73;99.42;98031.72;5165105;28;20221;-58
2021/09/17 02:02:17;;;;;;;5.90;5.50;;;13.00;99.90;;;13.73;98.71;98027.47;5165162;28;20573;-56
2021/09/17 02:04:50;;;;;;;5.60;5.20;;;13.00;99.90;;;13.76;97.75;98031.84;5165064;28;20203;-57
2021/09/17 02:07:24;;;;;;;5.95;5.55;;;13.00;99.90;;;13.77;97.21;98022.47;5164481;28;20209;-59
2021/09/17 02:09:57;;;;;;;6.20;5.70;;;13.00;99.90;;;13.71;97.13;98018.81;5183219;23;20676;-54
2021/09/17 02:12:30;;;;;;;6.47;5.93;;;13.00;99.90;;;13.70;98.04;98026.44;5184130;28;20211;-56
2021/09/17 02:15:06;;;;;;;6.00;5.60;;;13.00;99.90;;;13.74;97.16;98023.22;5180332;28;20213;-57
2021/09/17 02:17:39;;;;;;;6.60;6.10;;;12.90;99.90;;;13.69;97.68;98014.41;5184078;28;20285;-57
2021/09/17 02:20:13;;;;;;;5.88;5.47;;;12.90;99.90;;;13.67;97.37;98018.59;5182872;28;20222;-57
2021/09/17 02:22:48;;;;;;;6.38;5.90;;;12.90;99.90;;;13.65;97.69;98012.47;5183060;28;20230;-57
2021/09/17 02:25:21;;;;;;;6.32;5.72;;;12.90;99.90;;;13.71;98.17;98018.81;5181536;28;20308;-57
2021/09/17 02:27:54;;;;;;;6.47;5.88;;;13.00;99.90;;;13.76;99.11;98011.31;5177180;28;20293;-56
2021/09/17 02:30:27;;;;;;;6.75;6.15;;;13.10;99.90;;;13.80;98.76;98013.22;5184395;28;20717;-57
2021/09/17 02:33:00;;;;;;;6.13;5.70;;;13.10;99.90;;;13.84;98.51;98015.13;5184520;28;20202;-57
2021/09/17 02:35:34;;;;;;;6.65;6.15;;;13.10;99.90;;;13.86;97.88;98008.38;5184778;28;20655;-58
2021/09/17 02:38:08;;;;;;;7.15;6.47;;;13.10;99.90;;;13.82;98.06;98009.03;5183870;28;20195;-53
2021/09/17 02:40:41;;;;;;;6.15;5.75;;;13.20;99.90;;;13.86;98.79;98010.94;5184747;28;20217;-55
2021/09/17 02:43:14;;;;;;;6.88;6.38;;;13.20;99.90;;;13.87;97.55;98012.69;5186387;28;20206;-53
2021/09/17 02:45:48;;;;;;;7.35;6.82;;;13.10;99.90;;;13.84;98.36;98009.09;5185074;28;20202;-53
2021/09/17 02:48:21;;;;;;;6.82;6.32;;;13.20;99.90;;;13.84;98.46;98015.13;5184463;28;20301;-54
2021/09/17 02:50:54;;;;;;;6.90;6.40;;;13.10;99.90;;;13.82;98.08;98006.47;5188361;28;20316;-53
2021/09/17 02:53:28;;;;;;;6.90;6.30;;;13.10;99.90;;;13.82;98.10;98006.47;5189734;28;20204;-57
2021/09/17 02:56:01;;;;;;;6.50;6.07;;;13.20;99.90;;;13.85;97.51;98004.03;5189903;28;20569;-59
2021/09/17 02:58:36;;;;;;;6.57;6.07;;;13.20;99.90;;;13.81;97.68;97994.41;5188146;28;20199;-56
2021/09/17 03:01:09;;;;;;;7.30;6.50;;;13.10;99.90;;;13.82;97.76;98000.44;5187771;28;20644;-58
2021/09/17 03:03:42;;;;;;;7.45;6.85;;;13.10;99.90;;;13.78;97.59;97999.41;5187743;28;20218;-57
2021/09/17 03:06:16;;;;;;;6.88;6.28;;;13.10;99.90;;;13.74;97.76;97998.41;5188207;28;20209;-58
2021/09/17 03:08:50;;;;;;;6.93;6.43;;;13.00;99.90;;;13.79;98.15;97995.16;5187262;28;20598;-56
2021/09/17 03:11:23;;;;;;;6.55;6.05;;;13.10;99.90;;;13.83;97.83;97992.81;5187763;28;20289;-58
2021/09/17 03:13:56;;;;;;;7.75;7.15;;;13.10;99.90;;;13.84;97.83;97994.56;5188575;28;20294;-56
2021/09/17 03:16:30;;;;;;;7.70;5.60;;;13.20;99.90;;;13.83;98.71;97990.25;5188723;28;20226;-59
2021/09/17 03:19:03;;;;;;;7.07;6.47;;;13.20;99.90;;;13.86;97.32;97987.81;5187815;28;20214;-53
2021/09/17 03:21:36;;;;;;;7.15;6.45;;;13.20;99.90;;;13.88;98.49;97991.34;5187883;28;20277;-56
2021/09/17 03:24:11;;;;;;;7.50;6.80;;;13.20;99.90;;;13.85;97.84;97975.78;5188263;28;20226;-57
2021/09/17 03:26:44;;;;;;;7.07;6.47;;;13.20;99.90;;;13.86;97.70;97979.22;5188940;28;20208;-55
2021/09/17 03:29:17;;;;;;;7.25;6.65;;;13.10;99.90;;;13.79;97.83;97988.31;5188965;28;20229;-58
2021/09/17 03:31:50;;;;;;;7.20;6.30;;;13.10;99.90;;;13.76;97.28;97988.19;5187409;28;20198;-58
2021/09/17 03:34:23;;;;;;;7.53;6.80;;;13.00;99.90;;;13.83;98.42;97987.66;5187010;28;20294;-56
2021/09/17 03:36:56;;;;;;;6.90;6.30;;;13.10;99.90;;;13.85;98.68;97990.28;5186464;28;20289;-54
2021/09/17 03:39:30;;;;;;;6.75;6.25;;;13.10;99.90;;;13.88;97.70;97986.19;5188854;28;20352;-57
2021/09/17 03:42:04;;;;;;;6.97;6.32;;;13.20;99.90;;;13.91;96.87;97988.03;5188887;28;20292;-56
2021/09/17 03:44:37;;;;;;;6.15;5.68;;;13.20;99.90;;;13.89;98.08;97989.66;5187254;28;20219;-56
2021/09/17 03:47:10;;;;;;;7.00;6.50;;;13.20;99.90;;;13.92;97.65;97990.66;5187783;28;20210;-57
2021/09/17 03:49:43;;;;;;;8.85;6.55;;;13.20;99.90;;;13.88;96.95;97985.31;5186165;28;20230;-59
2021/09/17 03:52:16;;;;;;;6.40;5.90;;;13.20;99.90;;;13.88;97.87;97990.47;5186991;28;20195;-56
2021/09/17 03:54:51;;;;;;;6.95;6.45;;;13.20;99.90;;;13.88;98.38;97982.75;5188521;28;20204;-59
2021/09/17 03:57:24;;;;;;;6.00;5.50;;;13.20;99.90;;;13.90;97.42;97984.56;5186577;28;20204;-55
2021/09/17 03:59:57;;;;;;;5.80;5.40;;;13.20;99.90;;;13.87;98.18;97983.53;5186448;28;20678;-58
2021/09/17 04:02:30;;;;;;;6.88;6.18;;;13.20;99.90;;;13.89;98.06;97981.94;5183374;28;20209;-52
2021/09/17 04:05:04;;;;;;;7.00;6.40;;;13.20;99.90;;;13.90;98.83;97984.56;5186684;28;20233;-56
2021/09/17 04:07:41;;;;;;;7.78;6.80;;;13.30;99.90;;;13.95;98.65;97987.34;5187200;28;20294;-56
2021/09/17 04:10:18;;;;;;;7.43;6.82;;;13.30;99.90;;;13.96;98.14;97976.25;5187807;28;20257;-58
2021/09/17 04:12:51;;;;;;;7.00;6.38;;;13.30;99.90;;;13.91;98.08;97978.63;5189298;28;20632;-55
2021/09/17 04:15:24;;;;;;;8.00;6.90;;;13.20;99.90;;;13.90;99.55;97974.28;5188345;28;20540;-58
2021/09/17 04:17:57;;;;;;;6.97;6.40;;;13.30;99.90;;;13.93;99.52;97979.56;5188004;28;20241;-56
2021/09/17 04:20:30;;;;;;;7.18;6.55;;;13.30;99.90;;;13.92;98.18;97976.94;5186181;28;20226;-56
2021/09/17 04:23:04;;;;;;;7.18;6.53;;;13.30;99.90;;;13.91;97.71;97976.06;5186925;28;20224;-56
2021/09/17 04:25:38;;;;;;;7.00;6.50;;;13.20;99.90;;;13.92;98.46;97976.94;5187035;28;20681;-59
2021/09/17 04:28:11;;;;;;;7.20;6.50;;;13.20;99.90;;;13.95;97.64;97988.22;5188181;28;20296;-56
2021/09/17 04:30:44;;;;;;;7.68;6.97;;;13.20;99.90;;;13.98;98.53;97988.38;5186208;28;20220;-52
2021/09/17 04:33:17;;;;;;;7.57;6.88;;;13.30;99.90;;;14.03;97.63;97986.00;5185902;28;20195;-56
2021/09/17 04:35:50;;;;;;;7.22;6.70;;;13.30;99.90;;;14.04;97.31;97992.03;5187092;28;20203;-55
2021/09/17 04:38:24;;;;;;;7.82;7.13;;;13.30;99.90;;;14.02;96.90;97988.50;5188416;28;20645;-57
2021/09/17 04:40:58;;;;;;;7.75;7.05;;;13.30;99.90;;;13.98;96.97;97983.22;5187647;28;20222;-52
2021/09/17 04:43:31;;;;;;;7.07;6.47;;;13.30;99.90;;;13.96;97.56;97996.81;5187905;28;20200;-54
2021/09/17 04:46:04;;;;;;;6.60;5.93;;;13.20;99.90;;;13.97;96.96;97991.75;5187963;28;20205;-54
2021/09/17 04:48:37;;;;;;;7.68;6.97;;;13.20;99.90;;;13.97;98.17;97996.91;5187154;28;20194;-59
2021/09/17 04:51:10;;;;;;;6.82;6.32;;;13.30;99.90;;;13.97;98.54;97996.91;5186909;28;20233;-55
2021/09/17 04:53:43;;;;;;;7.82;7.22;;;13.30;99.90;;;14.02;98.42;98001.34;5185999;28;20199;-53
2021/09/17 04:56:18;;;;;;;7.40;6.80;;;13.30;99.90;;;14.02;97.29;97998.78;5186001;28;20662;-56
2021/09/17 04:58:51;;;;;;;7.28;6.40;;;13.30;99.90;;;14.03;97.58;98005.69;5187301;28;20208;-57
2021/09/17 05:01:24;;;;;;;7.30;6.70;;;13.30;99.90;;;14.08;96.76;97999.06;5185560;28;20198;-57
2021/09/17 05:03:57;;;;;;;7.55;6.95;;;13.30;99.90;;;14.07;96.52;98003.31;5186653;28;20214;-57
2021/09/17 05:06:31;;;;;;;8.30;7.50;;;13.30;99.90;;;14.04;96.60;98002.31;5185193;28;20289;-54
2021/09/17 05:09:04;;;;;;;7.13;6.63;;;13.30;99.90;;;14.06;97.37;98006.72;5186047;28;20233;-59
2021/09/17 05:11:39;;;;;;;7.80;7.10;;;13.40;99.90;;;14.05;97.37;98004.06;5183319;28;20293;-55
2021/09/17 05:14:12;;;;;;;6.97;6.35;;;13.30;99.90;;;14.10;96.64;98010.28;5185361;28;20284;-54
2021/09/17 05:16:45;;;;;;;7.80;7.13;;;13.40;99.90;;;14.08;97.66;98004.19;5183825;28;20203;-56
2021/09/17 05:19:22;;;;;;;7.85;6.90;;;13.40;99.90;;;14.07;97.46;98003.31;5185010;28;20215;-55
2021/09/17 05:21:56;;;;;;;7.30;6.68;;;13.30;99.90;;;14.05;96.88;98009.19;5185914;28;20202;-51
2021/09/17 05:24:29;;;;;;;7.45;6.75;;;13.30;99.90;;;14.06;97.38;98008.41;5183559;28;20228;-55
2021/09/17 05:27:06;;;;;;;9.75;8.65;;;13.40;99.90;;;14.11;97.07;98009.50;5181054;28;20198;-56
2021/09/17 05:29:39;;;;;;;9.75;8.85;;;13.40;99.90;;;14.14;98.30;98007.06;5184033;28;20697;-53
2021/09/17 05:32:13;;;;;;;8.77;8.02;;;13.50;99.90;;;14.13;97.50;98018.16;5184905;28;20198;-53
2021/09/17 05:34:46;;;;;;;8.70;7.85;;;13.40;99.90;;;14.15;97.21;98012.25;5185168;28;20278;-55
2021/09/17 05:37:19;;;;;;;8.95;8.15;;;13.40;99.90;;;14.16;97.12;98013.13;5183323;28;20207;-52
2021/09/17 05:39:52;;;;;;;8.50;7.78;;;13.40;99.90;;;14.13;97.15;98010.44;5182768;28;20242;-54
2021/09/17 05:42:26;;;;;;;8.50;7.80;;;13.40;99.90;;;14.13;96.79;98015.56;5184158;28;20198;-55
2021/09/17 05:44:59;;;;;;;7.80;7.05;;;13.40;99.90;;;14.17;97.75;98014.91;5184020;28;20226;-57
2021/09/17 05:47:33;;;;;;;7.18;6.57;;;13.50;99.90;;;14.22;97.68;98018.56;5176086;28;20659;-55
2021/09/17 05:50:08;;;;;;;8.80;7.95;;;13.50;99.90;;;14.25;97.47;98016.16;5178733;28;20234;-58
2021/09/17 05:52:41;;;;;;;9.40;8.60;;;13.60;99.90;;;14.32;97.54;98015.59;5175785;28;20289;-55
2021/09/17 05:55:14;;;;;;;8.73;8.02;;;13.60;99.90;;;14.34;97.10;98016.56;5181607;28;20199;-56
2021/09/17 05:57:49;;;;;;;8.95;8.15;;;13.60;99.90;;;14.36;96.95;98012.34;5181223;28;20213;-55
2021/09/17 06:00:22;;;;;;;8.88;8.07;;;13.60;99.90;;;14.35;97.04;98010.59;5179914;28;20606;-51
2021/09/17 06:02:55;;;;;;;8.80;8.00;;;13.60;99.90;;;14.38;97.93;98005.59;5179812;28;20206;-56
2021/09/17 06:05:28;;;;;;;9.07;8.18;;;13.70;99.90;;;14.41;97.55;98005.72;5180689;28;20222;-52
2021/09/17 06:08:01;;;;;;;8.13;7.43;;;13.70;99.90;;;14.41;96.58;98010.00;5176203;28;20576;-56
2021/09/17 06:10:34;;;;;;;8.55;7.75;;;13.60;99.90;;;14.42;97.02;98010.06;5175790;28;20237;-49
2021/09/17 06:13:09;;;;;;;8.73;7.93;;;13.60;99.90;;;14.34;96.13;98001.13;5176786;28;20198;-57
2021/09/17 06:15:42;;;;;;;9.35;8.48;;;13.60;99.90;;;14.38;96.75;98003.00;5178468;28;20276;-52
2021/09/17 06:18:15;;;;;;;9.93;9.02;;;13.60;99.90;;;14.38;97.43;98010.72;5183343;28;20203;-50
2021/09/17 06:20:48;;;;;;;10.63;9.18;;;13.70;99.90;;;14.40;97.09;98000.53;5181088;28;20309;-57
2021/09/17 06:23:21;;;;;;;9.13;8.25;;;13.60;99.90;;;14.39;96.67;97999.66;5176750;28;20225;-50
2021/09/17 06:25:56;;;;;;;9.35;8.45;;;13.60;99.90;;;14.45;96.25;98000.72;5175271;28;20226;-54
2021/09/17 06:28:31;;;;;;;9.52;8.73;;;13.70;99.90;;;14.50;96.59;98000.09;5183494;28;20202;-53
2021/09/17 06:31:04;;;;;;;10.30;9.40;;;13.70;99.90;;;14.53;95.87;98007.09;5181586;28;20228;-52
2021/09/17 06:33:37;;;;;;;10.30;9.40;;;13.70;99.90;;;14.51;96.53;98001.00;5181207;28;20212;-54
2021/09/17 06:36:10;;;;;;;10.45;9.45;;;13.80;99.90;;;14.53;97.72;98000.25;5177369;28;20573;-54
2021/09/17 06:38:43;;;;;;;9.93;9.02;;;13.90;99.90;;;14.60;96.87;98016.88;5179282;28;20201;-55
2021/09/17 06:41:16;;;;;;;10.07;9.18;;;13.90;99.90;;;14.68;96.81;98001.75;5180342;28;20203;-52
2021/09/17 06:43:51;;;;;;;10.70;9.70;;;13.90;99.90;;;14.72;96.09;98011.38;5178885;28;20202;-58
2021/09/17 06:46:24;;;;;;;9.55;8.75;;;14.00;99.90;;;14.73;96.08;98007.97;5182077;28;20218;-53
2021/09/17 06:48:57;;;;;;;9.93;9.02;;;13.90;99.90;;;14.76;95.55;98006.41;5181878;28;20249;-55
2021/09/17 06:51:30;;;;;;;9.43;8.52;;;14.00;99.90;;;14.80;96.08;97997.16;5183132;28;20661;-52
2021/09/17 06:54:03;;;;;;;10.85;9.85;;;14.00;99.90;;;14.85;95.17;98004.25;5181126;28;20205;-53
2021/09/17 06:56:36;;;;;;;11.20;10.20;;;14.10;99.90;;;14.86;95.58;97995.69;5182316;28;20203;-55
2021/09/17 06:59:11;;;;;;;11.50;10.40;;;14.10;99.90;;;14.91;95.58;98003.63;5179604;28;20230;-53
2021/09/17 07:01:45;;;;;;;12.68;11.38;;;14.10;99.90;;;14.93;95.03;98007.13;5184313;28;20194;-53
2021/09/17 07:04:18;;;;;;;10.52;9.55;;;14.20;99.90;;;14.96;95.22;98003.81;5182011;28;20218;-57
2021/09/17 07:06:51;;;;;;;11.68;10.50;;;14.20;99.90;;;14.96;94.88;98006.38;5182186;28;20665;-51
2021/09/17 07:09:24;;;;;;;11.00;10.00;;;14.20;99.90;;;15.03;94.98;98009.28;5176804;28;20280;-57
2021/09/17 07:11:57;;;;;;;10.43;9.43;;;14.30;99.90;;;15.07;94.82;98011.16;5177879;28;20284;-55
2021/09/17 07:14:32;;;;;;;9.70;8.90;;;14.40;99.90;;;15.14;95.18;98007.16;5182013;28;20249;-52
2021/09/17 07:17:05;;;;;;;9.98;8.98;;;14.40;99.90;;;15.29;94.62;98007.78;5180199;28;20284;-52
2021/09/17 07:19:38;;;;;;;10.98;9.98;;;14.50;99.90;;;15.32;94.29;98005.31;5181922;28;20221;-59
2021/09/17 07:22:11;;;;;;;12.05;10.88;;;14.50;99.90;;;15.31;94.55;98010.44;5178766;28;20662;-58
2021/09/17 07:24:44;;;;;;;10.68;9.68;;;14.60;99.90;;;15.40;94.60;98010.81;5183376;28;20281;-54
2021/09/17 07:27:17;;;;;;;10.60;9.63;;;14.60;99.90;;;15.57;94.57;98018.31;5182935;28;20222;-56
2021/09/17 07:29:52;;;;;;;12.05;10.85;;;14.80;99.90;;;15.66;94.60;98017.00;5181828;28;20619;-54
2021/09/17 07:32:25;;;;;;;11.40;10.30;;;14.90;99.90;;;15.75;94.28;98013.94;5180179;28;20676;-55
2021/09/17 07:34:58;;;;;;;10.90;10.00;;;15.00;99.90;;;15.87;93.83;98016.09;5182952;28;20629;-51
2021/09/17 07:37:31;;;;;;;14.27;12.90;;;15.10;99.90;;;15.91;92.34;98011.13;5183004;28;20206;-56
2021/09/17 07:40:07;;;;;;;12.77;11.57;;;15.10;99.90;;;15.97;91.77;98010.50;5183064;28;20232;-54
2021/09/17 07:42:40;;;;;;;11.10;10.00;;;15.10;99.90;;;16.03;91.55;98005.56;5182231;28;20225;-55
2021/09/17 07:45:16;;;;;;;10.60;9.57;;;15.10;99.90;;;16.09;91.33;98005.78;5182159;28;20205;-51
2021/09/17 07:47:49;;;;;;;11.98;10.88;;;15.20;99.90;;;16.24;90.07;98004.59;5184834;28;20237;-54
2021/09/17 07:50:24;;;;;;;11.40;10.32;;;15.20;99.90;;;16.21;90.25;98007.94;5186010;28;20227;-55
2021/09/17 07:52:57;;;;;;;11.43;10.35;;;15.20;99.90;;;16.20;90.51;98009.66;5184867;28;20289;-52
2021/09/17 07:55:34;;;;;;;13.23;11.90;;;15.30;99.90;;;16.22;89.31;98007.13;5182134;28;20289;-56
2021/09/17 07:58:07;;;;;;;11.02;9.95;;;15.30;99.90;;;16.27;89.93;98009.88;5182627;28;20198;-55
2021/09/17 08:00:41;;;;;;;12.68;11.40;;;15.30;99.90;;;16.25;88.89;98016.66;5184927;28;20255;-58
2021/09/17 08:03:15;;;;;;;12.50;11.30;;;15.40;99.90;;;16.25;89.09;98011.50;5184775;28;20753;-53
2021/09/17 08:05:49;;;;;;;11.90;10.80;;;15.40;99.90;;;16.31;89.77;98007.47;5180517;28;20229;-58
2021/09/17 08:08:22;;;;;;;11.32;10.30;;;15.50;99.90;;;16.36;89.26;98011.09;5179587;28;20284;-53
2021/09/17 08:10:55;;;;;;;13.07;11.77;;;15.50;99.90;;;16.46;89.19;98004.56;5177495;23;20231;-58
2021/09/17 08:13:29;;;;;;;13.60;12.32;;;15.60;99.90;;;16.49;86.46;98007.28;5163672;28;20622;-54
2021/09/17 08:16:03;;;;;;;12.77;11.57;;;15.60;99.90;;;16.58;87.19;98002.44;5165237;28;20669;-52
2021/09/17 08:18:36;;;;;;;12.27;11.07;;;15.70;99.90;;;16.67;87.21;97996.72;5164464;28;20607;-57
2021/09/17 08:21:09;;;;;;;11.98;10.88;;;15.80;99.90;;;16.77;87.61;98004.00;5166805;28;20876;-57
2021/09/17 08:23:42;;;;;;;12.68;11.48;;;16.00;99.90;;;16.96;86.80;98002.91;5181241;28;20209;-53
2021/09/17 08:26:17;;;;;;;12.32;11.13;;;16.00;99.90;;;17.14;85.99;98002.69;5164123;28;20223;-54
2021/09/17 08:28:50;;;;;;;12.70;11.52;;;16.10;99.90;;;17.19;85.88;98001.09;5160333;28;20213;-57
2021/09/17 08:31:25;;;;;;;13.82;12.43;;;16.20;99.90;;;17.29;86.30;98004.88;5176737;28;20701;-57
2021/09/17 08:33:58;;;;;;;12.63;11.52;;;16.30;99.90;;;17.44;85.81;98010.53;5173056;28;20213;-56
2021/09/17 08:36:31;;;;;;;12.90;11.68;;;16.50;99.90;;;17.64;82.92;98010.31;5180594;28;20625;-56
2021/09/17 08:39:05;;;;;;;12.80;11.57;;;16.50;99.90;;;17.64;81.75;98007.72;5169295;28;20198;-51
2021/09/17 08:41:39;;;;;;;13.15;11.75;;;16.50;99.90;;;17.63;82.43;98006.84;5160107;28;20201;-53
2021/09/17 08:44:12;;;;;;;12.88;11.73;;;16.60;99.90;;;17.61;81.38;98007.63;5163454;28;20204;-54
2021/09/17 08:46:46;;;;;;;11.68;10.60;;;16.50;99.90;;;17.70;81.72;98007.91;5163680;28;20231;-56
2021/09/17 08:49:24;;;;;;;12.25;11.05;;;16.50;99.90;;;17.78;81.36;98006.47;5179161;28;20195;-55
2021/09/17 08:51:58;;;;;;;12.20;11.20;;;16.70;99.90;;;17.87;80.58;98004.19;5172051;28;20234;-52
2021/09/17 08:54:31;;;;;;;12.45;11.35;;;16.80;99.90;;;17.93;80.28;98004.34;5173803;28;20217;-56
2021/09/17 08:57:04;;;;;;;11.50;10.30;;;16.80;99.90;;;18.08;79.65;98005.66;5176294;28;20205;-58
2021/09/17 08:59:38;;;;;;;12.15;11.15;;;17.00;99.90;;;18.20;79.14;98006.91;5163344;28;20219;-56
2021/09/17 09:02:23;;;;;;;12.10;11.05;;;17.00;99.90;;;18.23;77.56;98011.31;5166812;28;20195;-56
2021/09/17 09:04:59;;;;;;;12.27;11.18;;;17.00;99.90;;;18.33;76.27;98002.06;5167404;28;20207;-58
2021/09/17 09:07:35;;;;;;;12.27;11.10;;;17.10;99.90;;;18.40;76.52;98014.38;5178105;28;20321;-57
2021/09/17 09:10:12;;;;;;;11.73;10.52;;;17.10;99.90;;;18.41;75.63;98014.41;5164850;28;20311;-58
2021/09/17 09:12:48;;;;;;;12.05;11.05;;;17.20;99.90;;;18.36;76.17;98010.81;5163329;28;20234;-57
2021/09/17 09:15:25;;;;;;;12.02;10.93;;;17.20;99.90;;;18.40;75.62;98010.06;5172356;28;20285;-58
2021/09/17 09:18:08;;;;;;;11.23;10.32;;;17.30;99.90;;;18.49;74.25;98014.63;5162094;28;20677;-59
2021/09/17 09:20:44;;;;;;;9.65;8.85;;;17.30;99.90;;;18.64;72.67;98009.88;5160415;28;20314;-55
2021/09/17 09:23:20;;;;;;;10.68;9.27;;;17.40;99.90;;;18.71;73.36;97992.78;5179595;28;20589;-56
2021/09/17 09:26:00;;;;;;;10.55;9.57;;;17.50;99.90;;;18.79;70.85;97993.03;5168091;28;20930;-59
2021/09/17 09:28:36;;;;;;;10.63;9.35;;;17.70;99.90;;;18.90;70.07;97997.66;5165831;28;20219;-56
2021/09/17 09:31:13;;;;;;;10.35;9.43;;;17.80;99.90;;;19.07;69.74;98000.69;5175763;28;20222;-56
2021/09/17 09:33:48;;;;;;;9.32;8.60;;;17.90;99.90;;;19.15;68.48;97997.44;5163627;28;20648;-53
2021/09/17 09:36:23;;;;;;;10.02;9.10;;;18.00;99.90;;;19.20;68.40;97995.81;5167499;28;20202;-56
2021/09/17 09:38:56;;;;;;;9.38;8.60;;;18.00;99.90;;;19.24;69.30;97984.69;5170650;28;20201;-55
2021/09/17 09:41:33;;;;;;;11.30;10.30;;;18.10;99.90;;;19.34;69.70;97995.34;5172810;28;20215;-55
2021/09/17 09:44:16;;;;;;;11.30;10.20;;;18.30;99.90;;;19.34;69.05;97990.16;5159644;28;20210;-57
2021/09/17 09:46:49;;;;;;;10.45;9.63;;;18.20;99.90;;;19.49;69.34;97981.00;5165811;28;20234;-57
2021/09/17 09:49:25;;;;;;;11.77;10.63;;;18.30;99.90;;;19.68;69.16;97970.22;5166117;28;20198;-56
2021/09/17 09:52:01;;;;;;;10.65;9.75;;;18.50;99.90;;;19.74;69.25;97972.97;5162051;28;20653;-57
2021/09/17 09:54:37;;;;;;;11.32;10.32;;;18.60;99.90;;;19.92;68.43;97971.63;5179851;28;20543;-58
2021/09/17 09:57:10;;;;;;;11.25;10.23;;;18.70;99.90;;;20.01;67.96;97980.47;5169711;28;20217;-58
2021/09/17 09:59:43;;;;;;;11.73;10.40;;;18.90;99.90;;;20.23;65.33;97966.25;5169545;28;20222;-58
2021/09/17 10:02:18;;;;;;;9.48;8.68;;;19.20;99.90;;;20.17;64.34;97957.44;5163544;28;20209;-58
2021/09/17 10:04:53;;;;;;;10.07;9.27;;;19.10;99.90;;;20.33;65.61;97966.44;5173059;28;20198;-58
2021/09/17 10:07:28;;;;;;;9.27;8.45;;;19.40;99.90;;;20.48;65.03;97956.34;5163885;28;20607;-57
2021/09/17 10:10:04;;;;;;;9.93;8.90;;;19.60;99.90;;;20.84;63.28;97961.38;5174673;28;20602;-55
2021/09/17 10:12:38;;;;;;;8.93;8.23;;;20.00;99.90;;;20.89;61.69;97951.97;5167453;28;21456;-55
2021/09/17 10:15:13;;;;;;;9.35;8.52;;;20.00;99.90;;;21.09;60.05;97957.50;5158981;28;20242;-53
2021/09/17 10:17:51;;;;;;;8.68;7.97;;;20.10;99.90;;;21.14;60.53;97950.63;5176111;28;20749;-57
2021/09/17 10:20:36;;;;;;;9.32;8.63;;;20.30;99.90;;;21.09;58.93;97941.91;5160468;28;20297;-55
2021/09/17 10:23:26;;;;;;;9.00;8.30;;;20.20;99.90;;;21.35;58.94;97944.94;5168489;28;20204;-59
2021/09/17 10:26:03;;;;;;;8.07;7.30;;;20.40;99.90;;;21.57;57.63;97948.75;5148120;28;20205;-59
2021/09/17 10:29:05;;;;;;;8.32;7.72;;;20.60;99.90;;;21.71;58.31;97935.94;5157573;28;20698;-57
2021/09/17 10:31:42;;;;;;;7.20;6.50;;;20.80;99.90;;;21.90;57.25;97942.28;5167266;28;20583;-59
2021/09/17 10:34:31;;;;;;;7.22;6.65;;;21.00;99.90;;;22.05;58.26;97939.88;5161435;28;20207;-59
2021/09/17 10:37:05;;;;;;;7.90;7.20;;;21.10;99.90;;;22.04;58.54;97938.13;5165756;28;20199;-57
2021/09/17 10:39:40;;;;;;;7.10;6.50;;;20.90;99.90;;;21.97;58.64;97949.31;5167378;28;20219;-56
2021/09/17 10:42:16;;;;;;;7.07;6.43;;;20.80;99.90;;;22.05;55.66;97942.47;5159315;28;20214;-57
2021/09/17 10:45:19;;;;;;;5.88;5.38;;;20.60;99.90;;;21.78;55.41;97944.72;5162899;28;20203;-59